Time;durP1;ratioP1;P1;durP2;ratioP2;P2;SDS_P1;SDS_P2;PMS_P1;PMS_P2;Temp;Humidity;BMP_temperature;BMP_pressure;BME280_temperature;BME280_humidity;BME280_pressure;Samples;Min_cycle;Max_cycle;Signal;HPM_P1;HPM_P2
2021/11/23 00:00:11;;;;;;;11.60;7.25;;;3.90;99.90;;;;;;5056082;28;20029;-77
2021/11/23 00:02:38;;;;;;;12.35;8.07;;;3.80;99.90;;;;;;5056048;28;20021;-76
2021/11/23 00:05:05;;;;;;;11.27;7.78;;;3.80;99.90;;;;;;5030351;28;20128;-77
2021/11/23 00:07:31;;;;;;;10.13;7.53;;;3.80;99.90;;;;;;5034904;28;20102;-78
2021/11/23 00:09:57;;;;;;;11.77;7.82;;;3.80;99.90;;;;;;5036037;28;20041;-77
2021/11/23 00:12:24;;;;;;;10.35;7.32;;;3.80;99.90;;;;;;5036744;28;20104;-77
2021/11/23 00:14:50;;;;;;;10.45;7.80;;;3.80;99.90;;;;;;5038374;28;20029;-77
2021/11/23 00:17:16;;;;;;;9.98;7.07;;;3.80;99.90;;;;;;5055218;28;20092;-78
2021/11/23 00:19:42;;;;;;;10.27;7.40;;;3.80;99.90;;;;;;5057354;28;20029;-78
2021/11/23 00:22:08;;;;;;;9.82;7.63;;;3.80;99.90;;;;;;5035477;28;20017;-77
2021/11/23 00:24:34;;;;;;;10.07;7.65;;;3.70;99.90;;;;;;5050954;28;20031;-78
2021/11/23 00:27:00;;;;;;;11.05;7.20;;;3.70;99.90;;;;;;5040124;28;20108;-78
2021/11/23 00:29:25;;;;;;;9.23;7.05;;;3.70;99.90;;;;;;5057544;28;20616;-78
2021/11/23 00:31:51;;;;;;;10.05;7.70;;;3.70;99.90;;;;;;5056640;28;20021;-79
2021/11/23 00:34:17;;;;;;;11.25;7.85;;;3.60;99.90;;;;;;5037442;28;20381;-78
2021/11/23 00:36:43;;;;;;;12.23;7.35;;;3.70;99.90;;;;;;5057652;28;20029;-76
2021/11/23 00:39:09;;;;;;;10.18;6.88;;;3.60;99.90;;;;;;5037166;28;20386;-78
2021/11/23 00:41:35;;;;;;;11.52;7.43;;;3.60;99.90;;;;;;5037978;28;20029;-77
2021/11/23 00:44:00;;;;;;;8.93;6.72;;;3.60;99.90;;;;;;5055233;28;20021;-78
2021/11/23 00:46:26;;;;;;;11.02;7.15;;;3.50;99.90;;;;;;5037760;28;20036;-78
2021/11/23 00:48:52;;;;;;;11.10;7.40;;;3.50;99.90;;;;;;5039745;28;20029;-78
2021/11/23 00:51:18;;;;;;;8.65;6.55;;;3.50;99.90;;;;;;5054896;28;20024;-78
2021/11/23 00:53:44;;;;;;;9.82;6.57;;;3.50;99.90;;;;;;5048351;28;20098;-79
2021/11/23 00:56:10;;;;;;;9.77;6.88;;;3.50;99.90;;;;;;5060559;28;20028;-78
2021/11/23 00:58:35;;;;;;;10.80;7.57;;;3.40;99.90;;;;;;5053981;23;20018;-81
2021/11/23 01:01:03;;;;;;;9.63;6.70;;;3.40;99.90;;;;;;5065782;28;20025;-81
2021/11/23 01:03:32;;;;;;;9.73;6.72;;;3.40;99.90;;;;;;5050290;28;20067;-80
2021/11/23 01:05:59;;;;;;;9.70;6.90;;;3.50;99.90;;;;;;5067871;28;20009;-80
2021/11/23 01:08:27;;;;;;;13.13;7.65;;;3.50;99.90;;;;;;5054842;28;20028;-81
2021/11/23 01:10:55;;;;;;;10.15;7.45;;;3.40;99.90;;;;;;5086070;28;20024;-81
2021/11/23 01:13:21;;;;;;;10.73;7.20;;;3.40;99.90;;;;;;5086386;28;20029;-81
2021/11/23 01:15:47;;;;;;;9.85;7.05;;;3.40;99.90;;;;;;5085585;28;20039;-82
2021/11/23 01:18:13;;;;;;;11.55;7.75;;;3.30;99.90;;;;;;5085119;28;20084;-83
2021/11/23 01:20:39;;;;;;;9.90;7.30;;;3.30;99.90;;;;;;5086113;28;20028;-81
2021/11/23 01:23:05;;;;;;;9.85;7.20;;;3.30;99.90;;;;;;5097653;28;20043;-84
2021/11/23 01:25:32;;;;;;;14.30;8.05;;;3.30;99.90;;;;;;5092242;28;20035;-81
2021/11/23 01:27:58;;;;;;;20.58;10.20;;;3.20;99.90;;;;;;5083001;28;20056;-82
2021/11/23 01:30:24;;;;;;;12.35;8.77;;;3.20;99.90;;;;;;5071908;28;20025;-82
2021/11/23 01:32:50;;;;;;;10.30;7.68;;;3.20;99.90;;;;;;5071879;28;20078;-81
2021/11/23 01:35:16;;;;;;;11.55;7.93;;;3.20;99.90;;;;;;5089827;28;20020;-81
2021/11/23 01:37:44;;;;;;;10.80;7.40;;;3.20;99.90;;;;;;5067615;28;20025;-81
2021/11/23 01:40:11;;;;;;;12.15;7.35;;;3.10;99.90;;;;;;5069292;28;20021;-81
2021/11/23 01:42:37;;;;;;;12.57;8.25;;;3.20;99.90;;;;;;5069737;28;20029;-81
2021/11/23 01:45:04;;;;;;;13.15;8.30;;;3.20;99.90;;;;;;5051297;28;20059;-82
2021/11/23 01:47:30;;;;;;;10.45;7.70;;;3.20;99.90;;;;;;5069594;28;20041;-81
2021/11/23 01:49:56;;;;;;;9.68;6.90;;;3.20;99.90;;;;;;5054875;28;20021;-79
2021/11/23 01:52:22;;;;;;;9.95;7.00;;;3.20;99.90;;;;;;5102491;28;20039;-80
2021/11/23 01:54:48;;;;;;;11.05;7.30;;;3.20;99.90;;;;;;5092092;28;20017;-79
2021/11/23 01:57:16;;;;;;;11.32;8.00;;;3.20;99.90;;;;;;5094980;28;20036;-82
2021/11/23 01:59:42;;;;;;;9.98;7.40;;;3.10;99.90;;;;;;5074359;28;20497;-82
2021/11/23 02:02:08;;;;;;;10.68;7.65;;;3.10;99.90;;;;;;5054468;28;20044;-80
2021/11/23 02:04:34;;;;;;;12.38;7.78;;;3.10;99.90;;;;;;5073310;28;20084;-82
2021/11/23 02:06:59;;;;;;;14.25;7.38;;;3.00;99.90;;;;;;5055715;28;20029;-83
2021/11/23 02:09:26;;;;;;;13.73;7.65;;;3.00;99.90;;;;;;5053257;28;20029;-83
2021/11/23 02:11:52;;;;;;;9.52;6.68;;;3.00;99.90;;;;;;5053139;28;20021;-82
2021/11/23 02:14:19;;;;;;;10.80;7.32;;;3.00;99.90;;;;;;5055039;28;20040;-82
2021/11/23 02:16:45;;;;;;;11.13;8.10;;;2.90;99.90;;;;;;5053376;28;20432;-82
2021/11/23 02:19:11;;;;;;;10.27;7.05;;;2.90;99.90;;;;;;5051738;28;20055;-82
2021/11/23 02:21:37;;;;;;;10.30;7.38;;;2.90;99.90;;;;;;5080219;28;20024;-81
2021/11/23 02:24:03;;;;;;;11.88;6.90;;;2.90;99.90;;;;;;5079640;28;20028;-82
2021/11/23 02:26:29;;;;;;;10.00;6.90;;;2.90;99.90;;;;;;5070740;28;20029;-80
2021/11/23 02:28:56;;;;;;;11.65;7.00;;;2.90;99.90;;;;;;5070911;28;20025;-81
2021/11/23 02:31:22;;;;;;;8.57;6.50;;;2.90;99.90;;;;;;5088712;28;20033;-81
2021/11/23 02:33:49;;;;;;;11.15;7.25;;;2.80;99.90;;;;;;5089105;28;20027;-81
2021/11/23 02:36:15;;;;;;;13.13;6.63;;;2.80;99.90;;;;;;5069534;28;20416;-81
2021/11/23 02:38:41;;;;;;;12.07;8.02;;;2.80;99.90;;;;;;5071350;28;20025;-81
2021/11/23 02:41:10;;;;;;;9.60;6.18;;;2.80;99.90;;;;;;5056281;28;20085;-81
2021/11/23 02:43:37;;;;;;;11.18;6.20;;;2.80;99.90;;;;;;5066620;28;20032;-83
2021/11/23 02:46:03;;;;;;;10.65;6.50;;;2.80;99.90;;;;;;5069713;28;20451;-82
2021/11/23 02:48:29;;;;;;;9.80;7.10;;;2.80;99.90;;;;;;5070645;28;20017;-81
2021/11/23 02:53:31;;;;;;;11.40;6.82;;;2.70;99.90;;;;;;5100710;28;20056;-80
2021/11/23 02:55:58;;;;;;;11.73;6.97;;;2.70;99.90;;;;;;5091936;28;20063;-80
2021/11/23 02:58:24;;;;;;;12.00;7.65;;;2.70;99.90;;;;;;5099361;28;20042;-80
2021/11/23 03:00:50;;;;;;;10.32;6.72;;;2.60;99.90;;;;;;5109109;28;20025;-81
2021/11/23 03:03:16;;;;;;;10.95;7.15;;;2.60;99.90;;;;;;5078079;28;20035;-80
2021/11/23 03:05:42;;;;;;;11.32;7.35;;;2.60;99.90;;;;;;5093880;28;20039;-81
2021/11/23 03:08:08;;;;;;;10.15;6.95;;;2.60;99.90;;;;;;5071905;28;20029;-80
2021/11/23 03:10:34;;;;;;;11.77;7.78;;;2.60;99.90;;;;;;5088465;28;20043;-80
2021/11/23 03:13:01;;;;;;;10.63;7.35;;;2.60;99.90;;;;;;5069742;28;20029;-81
2021/11/23 03:15:28;;;;;;;10.05;7.07;;;2.60;99.90;;;;;;5068563;28;20025;-81
2021/11/23 03:17:55;;;;;;;9.18;6.82;;;2.60;99.90;;;;;;5051176;28;20032;-81
2021/11/23 03:20:23;;;;;;;11.60;7.25;;;2.60;99.90;;;;;;5051328;28;20112;-81
2021/11/23 03:22:49;;;;;;;9.98;6.50;;;2.60;99.90;;;;;;5112157;28;20083;-79
2021/11/23 03:25:17;;;;;;;11.52;7.53;;;2.60;99.90;;;;;;5094005;28;20036;-82
2021/11/23 03:27:43;;;;;;;10.00;7.32;;;2.60;99.90;;;;;;5086272;28;20021;-81
2021/11/23 03:30:12;;;;;;;11.20;7.80;;;2.60;99.90;;;;;;5068387;28;20029;-81
2021/11/23 03:32:38;;;;;;;10.43;7.32;;;2.60;99.90;;;;;;5055955;28;20127;-82
2021/11/23 03:35:05;;;;;;;14.40;7.80;;;2.60;99.90;;;;;;5065425;28;20077;-82
2021/11/23 03:37:32;;;;;;;11.93;8.00;;;2.60;99.90;;;;;;5064031;28;20029;-82
2021/11/23 03:39:58;;;;;;;11.20;7.85;;;2.60;99.90;;;;;;5065910;28;20132;-82
2021/11/23 03:42:24;;;;;;;12.80;8.40;;;2.60;99.90;;;;;;5067478;28;20033;-82
2021/11/23 03:44:50;;;;;;;13.18;7.65;;;2.60;99.90;;;;;;5065767;28;20131;-81
2021/11/23 03:47:17;;;;;;;11.25;7.70;;;2.50;99.90;;;;;;5064022;28;20032;-82
2021/11/23 03:49:46;;;;;;;12.15;8.23;;;2.50;99.90;;;;;;5063800;28;20017;-82
2021/11/23 03:52:13;;;;;;;10.57;7.40;;;2.50;99.90;;;;;;5086535;28;20017;-82
2021/11/23 03:54:39;;;;;;;11.63;8.15;;;2.50;99.90;;;;;;5097997;28;20024;-82
2021/11/23 03:57:06;;;;;;;11.68;8.30;;;2.40;99.90;;;;;;5103742;28;20061;-80
2021/11/23 03:59:32;;;;;;;11.10;7.78;;;2.40;99.90;;;;;;5103452;28;20035;-82
2021/11/23 04:01:57;;;;;;;12.77;8.13;;;2.30;99.90;;;;;;5084252;28;20465;-81
2021/11/23 04:04:23;;;;;;;12.25;7.38;;;2.30;99.90;;;;;;5084260;28;20032;-83
2021/11/23 04:06:50;;;;;;;11.75;7.88;;;2.20;99.90;;;;;;5083114;28;20026;-80
2021/11/23 04:09:16;;;;;;;12.23;7.35;;;2.20;99.90;;;;;;5064955;28;20115;-82
2021/11/23 04:11:42;;;;;;;12.45;8.07;;;2.20;99.90;;;;;;5064550;28;20460;-82
2021/11/23 04:14:08;;;;;;;12.85;8.50;;;2.20;99.90;;;;;;5070147;28;20043;-80
2021/11/23 04:16:33;;;;;;;11.60;8.20;;;2.20;99.90;;;;;;5062270;28;20115;-81
2021/11/23 04:18:59;;;;;;;12.23;7.57;;;2.20;99.90;;;;;;5062935;28;20430;-81
2021/11/23 04:21:25;;;;;;;13.55;8.10;;;2.20;99.90;;;;;;5077283;28;20063;-81
2021/11/23 04:23:51;;;;;;;12.82;8.60;;;2.10;99.90;;;;;;5080081;28;20040;-82
2021/11/23 04:26:17;;;;;;;11.85;7.88;;;2.10;99.90;;;;;;5062156;28;20031;-82
2021/11/23 04:28:46;;;;;;;14.80;8.30;;;2.00;99.90;;;;;;5044559;28;20053;-82
2021/11/23 04:31:12;;;;;;;12.60;8.20;;;1.90;99.90;;;;;;5044722;28;20033;-81
2021/11/23 04:33:37;;;;;;;12.63;8.23;;;1.90;99.90;;;;;;5062351;28;20040;-82
2021/11/23 04:36:04;;;;;;;12.52;8.50;;;1.90;99.90;;;;;;5063451;28;20081;-80
2021/11/23 04:38:30;;;;;;;11.82;7.47;;;1.80;99.90;;;;;;5060416;28;20108;-79
2021/11/23 04:40:57;;;;;;;13.13;8.77;;;1.70;99.90;;;;;;5090780;28;20028;-82
2021/11/23 04:43:23;;;;;;;13.52;8.27;;;1.70;99.90;;;;;;5081961;28;20020;-81
2021/11/23 04:45:49;;;;;;;14.68;8.60;;;1.60;99.90;;;;;;5082234;28;20037;-81
2021/11/23 04:48:15;;;;;;;13.32;8.45;;;1.50;99.90;;;;;;5062543;28;20043;-81
2021/11/23 04:50:40;;;;;;;15.32;9.25;;;1.40;99.90;;;;;;5064886;28;20158;-81
2021/11/23 04:53:08;;;;;;;14.20;8.27;;;1.40;99.90;;;;;;5095221;28;20122;-80
2021/11/23 04:55:35;;;;;;;12.70;8.18;;;1.40;99.90;;;;;;5114434;28;20020;-79
2021/11/23 04:58:00;;;;;;;17.30;9.57;;;1.40;99.90;;;;;;5114035;28;20016;-80
2021/11/23 05:00:26;;;;;;;13.77;8.98;;;1.40;99.90;;;;;;5096794;28;20107;-80
2021/11/23 05:02:52;;;;;;;14.05;8.98;;;1.30;99.90;;;;;;5094692;28;20012;-80
2021/11/23 05:05:17;;;;;;;13.57;8.23;;;1.30;99.90;;;;;;5092354;28;20059;-82
2021/11/23 05:07:44;;;;;;;12.93;8.57;;;1.30;99.90;;;;;;5081448;28;20400;-82
2021/11/23 05:10:12;;;;;;;14.63;8.98;;;1.30;99.90;;;;;;5071161;28;20029;-82
2021/11/23 05:12:38;;;;;;;15.80;9.38;;;1.30;99.90;;;;;;5060659;28;20019;-81
2021/11/23 05:15:05;;;;;;;13.40;8.52;;;1.30;99.90;;;;;;5043201;28;20074;-82
2021/11/23 05:17:31;;;;;;;15.20;8.75;;;1.30;99.90;;;;;;5047107;28;20101;-82
2021/11/23 05:19:57;;;;;;;16.63;9.00;;;1.40;99.90;;;;;;5076748;28;20029;-82
2021/11/23 05:22:25;;;;;;;12.90;7.93;;;1.40;99.90;;;;;;5083938;28;20068;-82
2021/11/23 05:24:51;;;;;;;11.55;8.02;;;1.40;99.90;;;;;;5086414;28;20199;-81
2021/11/23 05:27:16;;;;;;;13.30;8.88;;;1.40;99.90;;;;;;5078593;28;20033;-82
2021/11/23 05:29:42;;;;;;;15.52;8.57;;;1.50;99.90;;;;;;5066496;28;20024;-80
2021/11/23 05:32:08;;;;;;;12.82;8.55;;;1.40;99.90;;;;;;5039968;28;20228;-81
2021/11/23 05:34:34;;;;;;;14.40;8.15;;;1.40;99.90;;;;;;5041884;28;20044;-79
2021/11/23 05:37:00;;;;;;;12.93;8.00;;;1.40;99.90;;;;;;5060238;28;20017;-80
2021/11/23 05:39:26;;;;;;;12.98;7.50;;;1.40;99.90;;;;;;5059553;28;20499;-80
2021/11/23 05:41:52;;;;;;;12.38;7.72;;;1.40;99.90;;;;;;5060089;28;20497;-80
2021/11/23 05:44:18;;;;;;;14.00;8.25;;;1.30;99.90;;;;;;5059497;28;20033;-81
2021/11/23 05:46:44;;;;;;;13.57;8.40;;;1.40;99.90;;;;;;5042940;28;20096;-80
2021/11/23 05:49:10;;;;;;;13.38;8.27;;;1.40;99.90;;;;;;5043008;28;20059;-83
2021/11/23 05:51:36;;;;;;;11.43;7.93;;;1.40;99.90;;;;;;5057228;28;20051;-82
2021/11/23 05:54:02;;;;;;;14.95;7.97;;;1.40;99.90;;;;;;5064953;28;20107;-82
2021/11/23 05:56:28;;;;;;;13.30;8.57;;;1.40;99.90;;;;;;5081634;28;20025;-81
2021/11/23 05:58:53;;;;;;;15.20;9.43;;;1.50;99.90;;;;;;5082910;28;20088;-82
2021/11/23 06:01:19;;;;;;;15.45;9.05;;;1.50;99.90;;;;;;5060258;28;20025;-82
2021/11/23 06:03:45;;;;;;;12.80;7.50;;;1.60;99.90;;;;;;5062770;28;20032;-83
2021/11/23 06:06:13;;;;;;;13.55;8.45;;;1.50;99.90;;;;;;5061922;28;20047;-81
2021/11/23 06:08:39;;;;;;;13.55;8.48;;;1.60;99.90;;;;;;5060778;28;20028;-82
2021/11/23 06:11:05;;;;;;;12.07;7.93;;;1.60;99.90;;;;;;5065417;28;20094;-82
2021/11/23 06:13:31;;;;;;;16.02;8.98;;;1.50;99.90;;;;;;5084455;28;20037;-81
2021/11/23 06:15:57;;;;;;;14.10;7.82;;;1.60;99.90;;;;;;5081261;28;20035;-80
2021/11/23 06:18:23;;;;;;;12.60;8.60;;;1.60;99.90;;;;;;5080382;28;20017;-79
2021/11/23 06:20:51;;;;;;;13.43;8.65;;;1.60;99.90;;;;;;5079325;28;20029;-80
2021/11/23 06:23:18;;;;;;;12.30;8.20;;;1.70;99.90;;;;;;5096308;28;20027;-82
2021/11/23 06:25:46;;;;;;;13.27;8.40;;;1.70;99.90;;;;;;5082925;28;20032;-84
2021/11/23 06:28:16;;;;;;;12.63;8.38;;;1.70;99.90;;;;;;5085174;28;20020;-83
2021/11/23 06:30:42;;;;;;;11.63;8.65;;;1.70;99.90;;;;;;5102053;28;20020;-81
2021/11/23 06:33:09;;;;;;;13.20;8.50;;;1.70;99.90;;;;;;5100710;28;20008;-82
2021/11/23 06:35:36;;;;;;;11.95;8.18;;;1.70;99.90;;;;;;5089986;28;20051;-80
2021/11/23 06:38:02;;;;;;;14.35;8.90;;;1.80;99.90;;;;;;5089184;28;20119;-85
2021/11/23 06:40:28;;;;;;;14.00;8.70;;;1.80;99.90;;;;;;5107740;28;20016;-81
2021/11/23 06:42:54;;;;;;;12.15;8.23;;;1.90;99.90;;;;;;5085934;28;20036;-83
2021/11/23 06:45:20;;;;;;;16.33;8.43;;;1.90;99.90;;;;;;5096234;28;20012;-82
2021/11/23 06:47:46;;;;;;;13.60;8.93;;;1.90;99.90;;;;;;5076599;28;20056;-83
2021/11/23 06:50:13;;;;;;;13.70;9.23;;;1.90;99.90;;;;;;5090512;28;20033;-84
2021/11/23 06:52:40;;;;;;;13.90;9.30;;;2.00;99.90;;;;;;5098365;28;20001;-84
2021/11/23 06:55:06;;;;;;;17.00;9.18;;;2.00;99.90;;;;;;5103945;28;20028;-83
2021/11/23 06:57:33;;;;;;;13.60;9.18;;;1.90;99.90;;;;;;5092732;28;20027;-81
2021/11/23 06:59:59;;;;;;;14.30;9.27;;;1.90;99.90;;;;;;5094107;28;20028;-84
2021/11/23 07:02:25;;;;;;;17.08;8.85;;;1.90;99.90;;;;;;5088948;28;20024;-83
2021/11/23 07:04:51;;;;;;;16.58;9.77;;;1.90;99.90;;;;;;5091602;28;20021;-83
2021/11/23 07:07:17;;;;;;;12.80;8.70;;;1.90;99.90;;;;;;5099538;28;20029;-83
2021/11/23 07:09:43;;;;;;;13.85;8.43;;;1.90;99.90;;;;;;5116726;28;20097;-84
2021/11/23 07:12:12;;;;;;;15.75;9.55;;;1.90;99.90;;;;;;5091649;28;20024;-83
2021/11/23 07:14:38;;;;;;;14.70;8.68;;;2.00;99.90;;;;;;5066623;28;20048;-82
2021/11/23 07:17:05;;;;;;;15.77;9.77;;;2.00;99.90;;;;;;5058988;28;20469;-83
2021/11/23 07:19:31;;;;;;;16.10;9.40;;;2.10;99.90;;;;;;5075643;28;20037;-84
2021/11/23 07:21:59;;;;;;;13.32;8.45;;;2.00;99.90;;;;;;5086292;28;20040;-85
2021/11/23 07:24:26;;;;;;;12.98;8.38;;;2.00;99.90;;;;;;5086959;28;20021;-83
2021/11/23 07:26:55;;;;;;;13.07;8.68;;;2.10;99.90;;;;;;5093127;28;20024;-85
2021/11/23 07:29:20;;;;;;;16.95;9.40;;;2.10;99.90;;;;;;5071839;28;20035;-81
2021/11/23 07:31:46;;;;;;;15.60;9.82;;;2.20;99.90;;;;;;5080198;28;20084;-82
2021/11/23 07:34:12;;;;;;;12.27;8.65;;;2.20;99.90;;;;;;5066792;28;20021;-83
2021/11/23 07:36:38;;;;;;;13.38;8.73;;;2.20;99.90;;;;;;5061641;28;20101;-81
2021/11/23 07:39:06;;;;;;;16.52;9.55;;;2.20;99.90;;;;;;5095612;28;20036;-81
2021/11/23 07:41:32;;;;;;;14.55;9.55;;;2.20;99.90;;;;;;5084178;28;20044;-84
2021/11/23 07:43:58;;;;;;;11.40;8.00;;;2.20;99.90;;;;;;5065692;28;20025;-82
2021/11/23 07:46:28;;;;;;;12.30;9.00;;;2.30;99.90;;;;;;5081437;28;20384;-84
2021/11/23 07:48:55;;;;;;;13.68;8.90;;;2.30;99.90;;;;;;5084116;28;20019;-83
2021/11/23 07:51:21;;;;;;;12.25;8.73;;;2.30;99.90;;;;;;5083404;28;20032;-83
2021/11/23 07:53:46;;;;;;;17.00;9.23;;;2.30;99.90;;;;;;5101167;28;20032;-84
2021/11/23 07:56:13;;;;;;;14.27;8.43;;;2.30;99.90;;;;;;5085090;28;20024;-83
2021/11/23 07:58:39;;;;;;;14.43;8.68;;;2.30;99.90;;;;;;5081064;28;20123;-83
2021/11/23 08:01:05;;;;;;;15.20;8.70;;;2.30;99.90;;;;;;5099453;28;20024;-83
2021/11/23 08:03:31;;;;;;;13.80;8.85;;;2.30;99.90;;;;;;5064865;28;20138;-84
2021/11/23 08:05:57;;;;;;;15.23;9.55;;;2.30;99.90;;;;;;5084082;28;20481;-84
2021/11/23 08:08:23;;;;;;;15.35;9.18;;;2.40;99.90;;;;;;5082778;28;20024;-83
2021/11/23 08:10:49;;;;;;;14.75;9.77;;;2.50;99.90;;;;;;5084669;28;20016;-82
2021/11/23 08:13:16;;;;;;;13.48;8.02;;;2.50;99.90;;;;;;5084982;28;20042;-84
2021/11/23 08:15:42;;;;;;;12.75;8.40;;;2.60;99.90;;;;;;5064441;28;20029;-84
2021/11/23 08:18:09;;;;;;;14.98;10.00;;;2.50;99.90;;;;;;5084479;28;20099;-84
2021/11/23 08:20:35;;;;;;;11.07;7.93;;;2.60;99.90;;;;;;5082835;28;20086;-82
2021/11/23 08:23:02;;;;;;;11.55;8.27;;;2.70;99.90;;;;;;5066040;28;20055;-82
2021/11/23 08:25:28;;;;;;;12.35;7.22;;;2.70;99.90;;;;;;5099185;28;20075;-82
2021/11/23 08:27:54;;;;;;;10.82;8.20;;;2.70;99.90;;;;;;5057111;28;20012;-83
2021/11/23 08:30:21;;;;;;;12.90;8.00;;;2.70;99.90;;;;;;5076769;28;20023;-83
2021/11/23 08:32:47;;;;;;;11.95;7.65;;;2.80;99.90;;;;;;5071910;28;20029;-84
2021/11/23 08:35:13;;;;;;;11.70;8.65;;;2.80;99.90;;;;;;5046140;28;20495;-84
2021/11/23 08:37:39;;;;;;;12.65;8.98;;;2.80;99.90;;;;;;5072880;28;20028;-83
2021/11/23 08:40:05;;;;;;;12.18;8.20;;;2.80;99.90;;;;;;5071992;28;20029;-83
2021/11/23 08:42:32;;;;;;;12.73;8.07;;;2.80;99.90;;;;;;5066278;28;20055;-84
2021/11/23 08:44:59;;;;;;;11.77;8.23;;;3.00;99.90;;;;;;5046094;28;20032;-84
2021/11/23 08:47:25;;;;;;;13.32;8.88;;;3.00;99.90;;;;;;5045528;28;20025;-83
2021/11/23 08:49:51;;;;;;;17.20;9.82;;;3.10;99.90;;;;;;5063618;28;20024;-82
2021/11/23 08:52:18;;;;;;;14.60;8.77;;;3.30;99.90;;;;;;5065618;28;20469;-83
2021/11/23 08:54:44;;;;;;;12.98;8.00;;;3.40;99.90;;;;;;5085602;28;20032;-85
2021/11/23 08:57:10;;;;;;;11.88;8.55;;;3.60;99.90;;;;;;5081613;28;20032;-83
2021/11/23 08:59:44;;;;;;;9.68;7.80;;;3.70;99.90;;;;;;5089244;28;20036;-83
2021/11/23 09:02:13;;;;;;;9.88;7.40;;;3.70;99.90;;;;;;5066921;28;20039;-83
2021/11/23 09:04:40;;;;;;;9.25;7.00;;;3.70;99.90;;;;;;5083404;28;20055;-83
2021/11/23 09:07:08;;;;;;;10.35;7.15;;;3.80;99.90;;;;;;5081662;28;20021;-83
2021/11/23 09:09:39;;;;;;;9.57;7.70;;;4.00;99.90;;;;;;5081950;28;20017;-84
2021/11/23 09:12:05;;;;;;;11.27;8.13;;;4.20;99.90;;;;;;5081344;28;20032;-83
2021/11/23 09:14:33;;;;;;;13.70;8.18;;;4.20;99.90;;;;;;5081338;28;20101;-83
2021/11/23 09:17:00;;;;;;;10.65;7.65;;;4.20;99.30;;;;;;5082209;28;20029;-85
2021/11/23 09:19:26;;;;;;;9.95;6.93;;;4.10;99.60;;;;;;5045493;28;20067;-84
2021/11/23 09:21:52;;;;;;;9.80;7.65;;;4.00;99.90;;;;;;5065848;28;20119;-83
2021/11/23 09:24:18;;;;;;;11.30;7.38;;;4.10;99.90;;;;;;5096409;28;20035;-84
2021/11/23 09:26:44;;;;;;;8.65;7.03;;;4.30;99.90;;;;;;5086706;28;20024;-83
2021/11/23 09:29:10;;;;;;;9.40;6.85;;;4.20;99.90;;;;;;5080067;28;20076;-81
2021/11/23 09:31:36;;;;;;;11.60;8.68;;;4.30;99.90;;;;;;5076496;28;20052;-82
2021/11/23 09:34:02;;;;;;;12.13;8.85;;;4.40;99.40;;;;;;5066527;28;20024;-84
2021/11/23 09:36:28;;;;;;;12.00;8.38;;;4.40;98.30;;;;;;5093798;28;20103;-82
2021/11/23 09:38:54;;;;;;;14.57;10.32;;;4.30;98.60;;;;;;5065425;28;20049;-82
2021/11/23 09:41:19;;;;;;;13.75;10.13;;;4.10;98.60;;;;;;5045578;28;20056;-84
2021/11/23 09:43:45;;;;;;;16.10;9.02;;;3.90;99.00;;;;;;5064336;28;20041;-83
2021/11/23 09:46:11;;;;;;;13.77;8.85;;;3.90;99.70;;;;;;5067454;28;20123;-83
2021/11/23 09:48:44;;;;;;;12.23;8.73;;;4.00;99.90;;;;;;5049186;28;20529;-84
2021/11/23 09:51:16;;;;;;;14.15;9.35;;;4.20;99.90;;;;;;5059525;28;20032;-84
2021/11/23 09:53:42;;;;;;;12.52;8.27;;;4.40;99.30;;;;;;5081031;28;20039;-84
2021/11/23 09:56:08;;;;;;;12.55;9.20;;;4.40;99.10;;;;;;5086693;28;20037;-83
2021/11/23 09:58:34;;;;;;;13.32;8.73;;;4.50;98.70;;;;;;5084783;28;20032;-84
2021/11/23 10:01:06;;;;;;;10.65;8.02;;;4.50;97.90;;;;;;5066016;28;20037;-82
2021/11/23 10:03:33;;;;;;;13.88;8.38;;;4.60;98.20;;;;;;5066908;28;20245;-82
2021/11/23 10:06:09;;;;;;;12.77;8.40;;;4.50;98.00;;;;;;5066559;28;20032;-82
2021/11/23 10:08:37;;;;;;;13.10;8.35;;;4.50;98.50;;;;;;5067310;28;20024;-81
2021/11/23 10:11:03;;;;;;;13.57;8.10;;;4.60;98.50;;;;;;5069712;28;20055;-79
2021/11/23 10:13:44;;;;;;;13.57;8.32;;;4.70;98.20;;;;;;5088914;28;20021;-80
2021/11/23 10:16:11;;;;;;;11.63;8.85;;;4.80;97.50;;;;;;5089398;28;20473;-81
2021/11/23 10:18:37;;;;;;;12.10;8.63;;;4.70;97.70;;;;;;5091517;28;20527;-80
2021/11/23 10:21:06;;;;;;;12.50;9.38;;;4.70;97.10;;;;;;5080239;28;20021;-81
2021/11/23 10:23:38;;;;;;;11.85;8.73;;;4.60;97.10;;;;;;5083979;28;20025;-80
2021/11/23 10:26:18;;;;;;;;;;;4.60;97.50;;;;;;5069312;28;20029;-82
2021/11/23 10:28:53;;;;;;;14.95;8.85;;;4.60;98.10;;;;;;5087329;28;19922;-80
2021/11/23 10:31:21;;;;;;;15.57;9.90;;;4.60;97.50;;;;;;5068691;28;20423;-80
2021/11/23 10:33:55;;;;;;;13.40;8.95;;;4.70;97.50;;;;;;5086916;28;20028;-84
2021/11/23 10:36:21;;;;;;;14.68;10.15;;;4.70;97.60;;;;;;5088273;28;20039;-83
2021/11/23 10:38:46;;;;;;;15.75;9.30;;;4.70;97.50;;;;;;5095122;28;20016;-83
2021/11/23 10:41:15;;;;;;;12.15;9.45;;;4.60;97.10;;;;;;5079579;28;20032;-83
2021/11/23 10:43:42;;;;;;;12.25;8.77;;;4.60;97.70;;;;;;5063930;28;20029;-83
2021/11/23 10:46:16;;;;;;;8.85;7.00;;;4.60;98.40;;;;;;5072831;28;20068;-81
2021/11/23 10:48:50;;;;;;;12.05;9.02;;;4.80;98.60;;;;;;5075536;28;20033;-82
2021/11/23 10:51:16;;;;;;;12.98;9.18;;;4.90;97.60;;;;;;5062637;28;20023;-82
2021/11/23 10:53:42;;;;;;;11.60;9.13;;;4.90;97.50;;;;;;5097578;28;20542;-83
2021/11/23 10:56:14;;;;;;;11.50;8.55;;;5.00;96.10;;;;;;5104910;28;20032;-83
2021/11/23 10:58:42;;;;;;;11.10;8.50;;;5.10;96.50;;;;;;5092772;28;20111;-83
2021/11/23 11:01:12;;;;;;;16.63;9.50;;;5.10;96.70;;;;;;5096516;28;20021;-83
2021/11/23 11:03:40;;;;;;;15.82;9.75;;;5.20;96.50;;;;;;5063915;28;20024;-83
2021/11/23 11:06:06;;;;;;;11.30;7.68;;;5.20;96.50;;;;;;5066294;28;20060;-81
2021/11/23 11:08:39;;;;;;;10.95;8.07;;;5.20;96.70;;;;;;5071160;28;20031;-78
2021/11/23 11:11:07;;;;;;;9.35;7.85;;;5.50;96.80;;;;;;5067016;28;20021;-80
2021/11/23 11:13:34;;;;;;;10.27;8.18;;;5.70;96.30;;;;;;5063132;28;20083;-79
2021/11/23 11:16:01;;;;;;;11.95;9.20;;;5.70;95.70;;;;;;5065727;28;20043;-77
2021/11/23 11:18:26;;;;;;;16.65;9.68;;;5.60;94.80;;;;;;5052009;28;20048;-78
2021/11/23 11:21:00;;;;;;;11.48;8.70;;;5.40;95.30;;;;;;5071544;28;20068;-78
2021/11/23 11:23:28;;;;;;;12.60;9.90;;;5.40;95.80;;;;;;5090798;28;20016;-79
2021/11/23 11:29:04;;;;;;;11.93;8.93;;;5.20;94.90;;;;;;5077653;28;20508;-79
2021/11/23 11:31:48;;;;;;;16.27;9.05;;;5.00;95.30;;;;;;5082635;28;20029;-79
2021/11/23 11:34:22;;;;;;;13.82;9.57;;;5.00;96.00;;;;;;5044014;28;20048;-78
2021/11/23 11:36:56;;;;;;;11.57;9.15;;;5.00;96.00;;;;;;5063480;28;20028;-78
2021/11/23 11:39:37;;;;;;;14.07;9.13;;;4.90;96.10;;;;;;5088440;28;20063;-79
2021/11/23 11:42:30;;;;;;;13.85;9.52;;;5.10;96.30;;;;;;5100778;28;20019;-77
2021/11/23 11:44:57;;;;;;;10.90;9.02;;;5.10;96.20;;;;;;5085783;28;20041;-80
2021/11/23 11:47:32;;;;;;;12.43;9.27;;;5.10;95.90;;;;;;5078879;28;20021;-78
2021/11/23 11:50:04;;;;;;;11.52;8.27;;;5.00;96.00;;;;;;5082387;28;20028;-80
2021/11/23 11:52:33;;;;;;;9.65;7.72;;;5.00;96.60;;;;;;5089304;28;20076;-78
2021/11/23 11:55:28;;;;;;;11.98;8.95;;;4.90;96.60;;;;;;5100773;28;20055;-79
2021/11/23 11:58:05;;;;;;;10.75;8.85;;;5.00;96.60;;;;;;5084941;28;20065;-78
2021/11/23 12:00:41;;;;;;;12.00;8.13;;;5.20;96.50;;;;;;5102263;28;20032;-78
2021/11/23 12:03:14;;;;;;;9.82;8.40;;;5.20;96.50;;;;;;5095440;28;20029;-79
2021/11/23 12:06:00;;;;;;;12.77;9.02;;;5.30;96.00;;;;;;5062805;28;20032;-78
2021/11/23 12:08:29;;;;;;;11.95;8.30;;;5.40;96.10;;;;;;5061552;28;20024;-78
2021/11/23 12:10:55;;;;;;;9.30;7.28;;;5.50;95.90;;;;;;5060703;28;20032;-79
2021/11/23 12:14:08;;;;;;;8.77;7.45;;;5.60;95.90;;;;;;5047112;28;20289;-78
2021/11/23 12:16:52;;;;;;;11.75;8.30;;;5.80;95.50;;;;;;4979949;28;20039;-78
2021/11/23 12:19:25;;;;;;;9.50;7.63;;;6.00;94.70;;;;;;4981543;28;20031;-79
2021/11/23 12:21:56;;;;;;;7.75;6.43;;;6.30;94.90;;;;;;5059051;28;20032;-79
2021/11/23 12:24:39;;;;;;;8.97;7.40;;;6.60;94.60;;;;;;5082106;28;20045;-80
2021/11/23 12:27:14;;;;;;;10.40;7.78;;;6.80;93.70;;;;;;5065491;28;20299;-80
2021/11/23 12:29:41;;;;;;;8.20;7.10;;;7.00;91.90;;;;;;5061682;28;20051;-79
2021/11/23 12:32:07;;;;;;;8.20;7.40;;;6.90;91.90;;;;;;5060785;28;20072;-80
2021/11/23 12:34:33;;;;;;;7.40;6.40;;;6.70;91.80;;;;;;5060306;28;20013;-80
2021/11/23 12:37:00;;;;;;;6.18;5.22;;;6.50;92.20;;;;;;5060559;28;20363;-80
2021/11/23 12:39:34;;;;;;;11.05;7.47;;;6.30;93.00;;;;;;5059848;28;20112;-79
2021/11/23 12:42:04;;;;;;;12.50;7.80;;;6.40;93.00;;;;;;5042325;28;20033;-82
2021/11/23 12:44:37;;;;;;;8.02;6.55;;;6.40;93.10;;;;;;5072357;28;20019;-78
2021/11/23 12:47:18;;;;;;;11.48;7.40;;;6.30;93.50;;;;;;5062787;28;20059;-79
2021/11/23 12:49:54;;;;;;;8.57;6.72;;;6.20;93.30;;;;;;5079973;28;20088;-80
2021/11/23 12:52:25;;;;;;;9.15;7.45;;;6.10;93.40;;;;;;5071405;28;20055;-79
2021/11/23 12:54:52;;;;;;;9.88;7.43;;;6.10;93.40;;;;;;5094147;28;20048;-80